createdAt,value
2022-08-22T00:02:34.273Z,100223.25
2022-08-22T00:02:48.505Z,100172.92
2022-08-22T00:03:00.232Z,100182.38
2022-08-22T00:05:13.652Z,100223.63
2022-08-22T00:07:47.981Z,100222.17
2022-08-22T00:10:25.333Z,100221.63
2022-08-22T00:13:00.540Z,100222.12
2022-08-22T00:15:43.602Z,100220.45
2022-08-22T00:18:18.175Z,100221.73
2022-08-22T00:20:52.024Z,100224.41
2022-08-22T00:23:27.578Z,100223.13
2022-08-22T00:26:01.529Z,100224.23
2022-08-22T00:28:36.360Z,100218.20
2022-08-22T00:31:21.878Z,100218.16
2022-08-22T00:34:00.092Z,100213.10
2022-08-22T00:36:35.387Z,100210.86
2022-08-22T00:39:13.610Z,100208.02
2022-08-22T00:41:58.822Z,100208.22
2022-08-22T00:44:43.637Z,100206.63
2022-08-22T00:47:31.848Z,100207.29
2022-08-22T00:50:33.522Z,100203.76
2022-08-22T00:53:12.756Z,100202.73
2022-08-22T00:55:54.316Z,100197.50
2022-08-22T00:58:59.875Z,100194.15
2022-08-22T01:01:57.061Z,100195.19
2022-08-22T01:04:46.290Z,100197.83
2022-08-22T01:07:37.126Z,100198.70
2022-08-22T01:10:22.075Z,100197.93
2022-08-22T01:13:10.353Z,100196.96
2022-08-22T01:15:40.182Z,100199.05
2022-08-22T01:18:47.013Z,100196.90
2022-08-22T01:21:50.519Z,100194.03
2022-08-22T01:25:15.779Z,100192.30
2022-08-22T01:28:23.296Z,100196.96
2022-08-22T01:31:28.595Z,100190.81
2022-08-22T01:34:32.316Z,100197.95
2022-08-22T01:37:26.173Z,100198.02
2022-08-22T01:40:22.228Z,100200.14
2022-08-22T01:43:06.235Z,100199.89
2022-08-22T01:45:49.610Z,100195.58
2022-08-22T01:48:21.978Z,100195.29
2022-08-22T01:50:54.424Z,100191.50
2022-08-22T01:53:28.218Z,100196.95
2022-08-22T01:56:03.919Z,100196.48
2022-08-22T01:58:35.850Z,100196.59
2022-08-22T02:01:18.768Z,100197.49
2022-08-22T02:04:00.453Z,100199.23
2022-08-22T02:06:40.510Z,100195.71
2022-08-22T02:09:20.010Z,100201.47
2022-08-22T02:11:54.700Z,100199.72
2022-08-22T02:14:39.437Z,100201.02
2022-08-22T02:17:19.899Z,100206.84
2022-08-22T02:20:01.828Z,100204.27
2022-08-22T02:22:36.792Z,100198.91
2022-08-22T02:25:17.345Z,100195.19
2022-08-22T02:27:52.429Z,100197.98
2022-08-22T02:30:25.170Z,100190.06
2022-08-22T02:32:59.790Z,100192.31
2022-08-22T02:35:34.048Z,100193.33
2022-08-22T02:38:22.770Z,100194.12
2022-08-22T02:41:03.671Z,100195.67
2022-08-22T02:43:43.452Z,100197.56
2022-08-22T02:46:27.422Z,100197.67
2022-08-22T02:49:03.907Z,100197.58
2022-08-22T02:51:40.819Z,100192.77
2022-08-22T02:54:17.581Z,100193.00
2022-08-22T02:56:52.528Z,100191.58
2022-08-22T02:59:32.701Z,100191.48
2022-08-22T03:02:27.510Z,100188.30
2022-08-22T03:04:59.598Z,100188.31
2022-08-22T03:07:34.215Z,100187.68
2022-08-22T03:10:13.396Z,100188.88
2022-08-22T03:12:49.237Z,100188.42
2022-08-22T03:15:26.052Z,100184.59
2022-08-22T03:18:00.334Z,100184.30
2022-08-22T03:20:44.244Z,100180.71
2022-08-22T03:23:20.595Z,100180.41
2022-08-22T03:25:55.900Z,100181.19
2022-08-22T03:28:29.628Z,100184.80
2022-08-22T03:31:07.913Z,100181.90
2022-08-22T03:33:35.588Z,100187.41
2022-08-22T03:36:09.210Z,100190.23
2022-08-22T03:39:02.298Z,100187.73
2022-08-22T03:42:16.256Z,100191.06
2022-08-22T03:45:08.325Z,100192.05
2022-08-22T03:48:16.607Z,100200.60
2022-08-22T03:51:08.368Z,100202.70
2022-08-22T03:53:52.268Z,100203.00
2022-08-22T03:56:57.488Z,100202.70
2022-08-22T03:59:59.439Z,100206.56
2022-08-22T04:02:59.424Z,100213.48
2022-08-22T04:06:12.628Z,100213.68
2022-08-22T04:09:15.326Z,100214.55
2022-08-22T04:12:14.485Z,100213.38
2022-08-22T04:15:06.765Z,100215.46
2022-08-22T04:17:59.597Z,100216.42
2022-08-22T04:20:51.998Z,100220.83
2022-08-22T04:23:40.416Z,100222.43
2022-08-22T04:26:18.653Z,100221.98
2022-08-22T04:28:52.851Z,100223.79
2022-08-22T04:31:26.796Z,100224.52
2022-08-22T04:34:01.663Z,100226.36
2022-08-22T04:36:35.006Z,100223.86
2022-08-22T04:39:10.535Z,100225.89
2022-08-22T04:41:48.071Z,100226.45
2022-08-22T04:44:23.645Z,100228.96
2022-08-22T04:46:58.364Z,100230.83
2022-08-22T04:49:35.121Z,100231.99
2022-08-22T04:52:13.684Z,100232.36
2022-08-22T04:54:55.333Z,100234.83
2022-08-22T04:57:30.748Z,100237.30
2022-08-22T05:00:03.542Z,100238.27
2022-08-22T05:02:33.168Z,100238.89
2022-08-22T05:05:13.581Z,100239.23
2022-08-22T05:07:46.029Z,100238.81
2022-08-22T05:10:19.080Z,100242.24
2022-08-22T05:12:54.012Z,100242.79
2022-08-22T05:15:26.285Z,100243.05
2022-08-22T05:17:59.573Z,100243.41
2022-08-22T05:20:29.910Z,100242.95
2022-08-22T05:23:03.004Z,100245.19
2022-08-22T05:25:37.799Z,100246.83
2022-08-22T05:28:11.175Z,100247.95
2022-08-22T05:30:39.928Z,100237.38
2022-08-22T05:33:16.227Z,100236.67
2022-08-22T05:35:51.575Z,100233.48
2022-08-22T05:38:27.626Z,100235.50
2022-08-22T05:41:01.885Z,100236.66
2022-08-22T05:43:31.903Z,100231.64
2022-08-22T05:46:00.900Z,100233.04
2022-08-22T05:48:37.381Z,100233.88
2022-08-22T05:51:12.987Z,100232.55
2022-08-22T05:53:45.501Z,100231.58
2022-08-22T05:56:22.973Z,100227.41
2022-08-22T05:58:59.644Z,100225.55
2022-08-22T06:01:35.540Z,100227.52
2022-08-22T06:04:09.353Z,100230.65
2022-08-22T06:06:43.144Z,100228.86
2022-08-22T06:09:18.703Z,100228.05
2022-08-22T06:11:54.845Z,100230.31
2022-08-22T06:14:30.630Z,100229.27
2022-08-22T06:17:09.591Z,100234.73
2022-08-22T06:19:41.692Z,100235.15
2022-08-22T06:22:11.777Z,100233.45
2022-08-22T06:24:50.246Z,100233.81
2022-08-22T06:27:20.780Z,100236.25
2022-08-22T06:29:54.736Z,100235.95
2022-08-22T06:32:30.749Z,100239.69
2022-08-22T06:35:17.871Z,100238.81
2022-08-22T06:37:48.485Z,100243.41
2022-08-22T06:40:18.438Z,100245.60
2022-08-22T06:42:50.598Z,100252.02
2022-08-22T06:45:22.041Z,100252.63
2022-08-22T06:47:56.327Z,100258.29
2022-08-22T06:50:31.953Z,100257.78
2022-08-22T06:53:05.034Z,100255.34
2022-08-22T06:55:36.256Z,100255.88
2022-08-22T06:58:04.970Z,100252.14
2022-08-22T07:00:34.937Z,100254.92
2022-08-22T07:03:11.173Z,100251.16
2022-08-22T07:05:42.097Z,100251.71
2022-08-22T07:08:13.229Z,100252.58
2022-08-22T07:10:41.307Z,100254.77
2022-08-22T07:13:15.020Z,100256.34
2022-08-22T07:15:43.561Z,100257.44
2022-08-22T07:18:24.076Z,100256.17
2022-08-22T07:20:55.210Z,100261.14
2022-08-22T07:23:33.503Z,100260.85
2022-08-22T07:26:14.747Z,100265.95
2022-08-22T07:28:51.574Z,100268.55
2022-08-22T07:31:34.078Z,100271.40
2022-08-22T07:34:15.407Z,100273.42
2022-08-22T07:36:45.612Z,100273.13
2022-08-22T07:39:23.709Z,100276.85
2022-08-22T07:42:03.060Z,100275.43
2022-08-22T07:44:36.647Z,100272.89
2022-08-22T07:47:09.275Z,100276.08
2022-08-22T07:49:49.826Z,100284.54
2022-08-22T07:52:19.433Z,100282.00
2022-08-22T07:54:52.163Z,100280.65
2022-08-22T07:57:27.118Z,100278.65
2022-08-22T07:59:58.408Z,100277.31
2022-08-22T08:02:27.614Z,100276.61
2022-08-22T08:04:57.410Z,100280.40
2022-08-22T08:07:28.358Z,100280.45
2022-08-22T08:10:01.315Z,100281.83
2022-08-22T08:12:33.141Z,100279.05
2022-08-22T08:15:03.351Z,100281.52
2022-08-22T08:17:34.808Z,100280.84
2022-08-22T08:20:08.773Z,100281.73
2022-08-22T08:22:38.197Z,100279.98
2022-08-22T08:25:08.711Z,100282.46
2022-08-22T08:27:57.468Z,100281.17
2022-08-22T08:30:36.373Z,100274.57
2022-08-22T08:33:25.334Z,100270.42
2022-08-22T08:36:02.540Z,100270.16
2022-08-22T08:38:36.639Z,100267.14
2022-08-22T08:41:47.416Z,100264.43
2022-08-22T08:44:35.056Z,100262.52
2022-08-22T08:47:20.356Z,100263.55
2022-08-22T08:50:10.120Z,100263.04
2022-08-22T08:53:05.932Z,100260.35
2022-08-22T08:55:50.521Z,100258.06
2022-08-22T08:58:34.347Z,100257.47
2022-08-22T09:01:16.029Z,100253.78
2022-08-22T09:04:15.315Z,100251.86
2022-08-22T09:07:01.533Z,100251.65
2022-08-22T09:09:52.611Z,100251.73
2022-08-22T09:12:56.075Z,100251.56
2022-08-22T09:15:58.619Z,100250.69
2022-08-22T09:18:59.481Z,100248.45
2022-08-22T09:21:58.344Z,100251.95
2022-08-22T09:24:56.077Z,100252.42
2022-08-22T09:27:34.191Z,100253.46
2022-08-22T09:30:08.400Z,100252.34
2022-08-22T09:32:46.758Z,100254.59
2022-08-22T09:35:24.853Z,100253.35
2022-08-22T09:38:14.307Z,100249.55
2022-08-22T09:40:48.846Z,100244.38
2022-08-22T09:43:23.089Z,100242.14
2022-08-22T09:46:03.305Z,100238.45
2022-08-22T09:48:47.951Z,100236.80
2022-08-22T09:51:32.294Z,100229.71
2022-08-22T09:54:19.765Z,100225.38
2022-08-22T09:57:10.215Z,100220.07
2022-08-22T09:59:58.046Z,100213.70
2022-08-22T10:02:35.989Z,100210.02
2022-08-22T10:05:12.209Z,100206.27
2022-08-22T10:08:19.585Z,100198.66
2022-08-22T10:11:16.723Z,100195.66
2022-08-22T10:13:57.559Z,100190.42
2022-08-22T10:16:56.937Z,100190.40
2022-08-22T10:19:32.311Z,100186.06
2022-08-22T10:22:22.811Z,100184.91
2022-08-22T10:25:05.154Z,100181.73
2022-08-22T10:27:51.149Z,100178.21
2022-08-22T10:30:25.071Z,100173.73
2022-08-22T10:33:03.676Z,100163.94
2022-08-22T10:35:39.296Z,100163.09
2022-08-22T10:38:13.575Z,100160.48
2022-08-22T10:40:51.802Z,100157.66
2022-08-22T10:43:28.989Z,100157.38
2022-08-22T10:46:03.939Z,100158.05
2022-08-22T10:48:47.055Z,100155.75
2022-08-22T10:51:17.698Z,100155.52
2022-08-22T10:54:05.668Z,100150.85
2022-08-22T10:56:41.163Z,100149.78
2022-08-22T10:59:27.441Z,100148.64
2022-08-22T11:02:10.629Z,100144.27
2022-08-22T11:04:56.049Z,100140.29
2022-08-22T11:07:48.662Z,100141.22
2022-08-22T11:10:30.073Z,100136.55
2022-08-22T11:13:12.414Z,100137.25
2022-08-22T11:15:58.569Z,100132.77
2022-08-22T11:18:39.967Z,100134.40
2022-08-22T11:21:16.495Z,100135.61
2022-08-22T11:23:54.415Z,100134.77
2022-08-22T11:26:41.699Z,100134.61
2022-08-22T11:29:31.192Z,100131.44
2022-08-22T11:32:07.655Z,100130.05
2022-08-22T11:34:46.721Z,100128.73
2022-08-22T11:37:42.692Z,100123.55
2022-08-22T11:40:24.473Z,100125.42
2022-08-22T11:43:03.202Z,100122.36
2022-08-22T11:45:40.578Z,100124.81
2022-08-22T11:48:17.920Z,100120.65
2022-08-22T11:50:52.864Z,100122.11
2022-08-22T11:53:30.316Z,100111.53
2022-08-22T11:56:13.327Z,100104.91
2022-08-22T11:58:55.632Z,100100.88
2022-08-22T12:01:35.892Z,100098.80
2022-08-22T12:04:13.211Z,100104.39
2022-08-22T12:06:55.057Z,100105.11
2022-08-22T12:09:56.253Z,100105.17
2022-08-22T12:12:37.230Z,100103.19
2022-08-22T12:15:16.294Z,100106.08
2022-08-22T12:18:14.283Z,100098.82
2022-08-22T12:21:11.340Z,100103.00
2022-08-22T12:24:21.011Z,100097.31
2022-08-22T12:27:07.808Z,100096.86
2022-08-22T12:29:44.795Z,100092.36
2022-08-22T12:33:01.098Z,100091.88
2022-08-22T12:35:40.357Z,100086.11
2022-08-22T12:38:31.293Z,100086.73
2022-08-22T12:41:34.670Z,100083.63
2022-08-22T12:44:24.397Z,100077.14
2022-08-22T12:47:09.457Z,100075.25
2022-08-22T12:49:52.657Z,100072.16
2022-08-22T12:52:35.591Z,100068.77
2022-08-22T12:55:30.466Z,100064.27
2022-08-22T12:58:10.577Z,100063.89
2022-08-22T13:00:43.267Z,100060.92
2022-08-22T13:03:23.233Z,100056.00
2022-08-22T13:05:56.716Z,100057.71
2022-08-22T13:08:31.147Z,100059.69
2022-08-22T13:11:02.474Z,100053.90
2022-08-22T13:13:37.065Z,100056.09
2022-08-22T13:16:08.346Z,100052.21
2022-08-22T13:18:44.823Z,100049.60
2022-08-22T13:21:16.741Z,100042.38
2022-08-22T13:23:52.525Z,100045.56
2022-08-22T13:26:33.811Z,100040.31
2022-08-22T13:29:27.016Z,100043.94
2022-08-22T13:32:00.893Z,100034.21
2022-08-22T13:34:39.998Z,100031.84
2022-08-22T13:37:14.958Z,100028.31
2022-08-22T13:39:49.169Z,100028.30
2022-08-22T13:42:30.080Z,100027.88
2022-08-22T13:45:02.390Z,100027.27
2022-08-22T13:47:35.010Z,100026.88
2022-08-22T13:50:14.161Z,100021.06
2022-08-22T13:52:52.220Z,100020.98
2022-08-22T13:55:29.924Z,100024.70
2022-08-22T13:58:06.743Z,100018.92
2022-08-22T14:01:04.972Z,100018.69
2022-08-22T14:03:42.446Z,100017.57
2022-08-22T14:06:37.338Z,100018.79
2022-08-22T14:09:15.543Z,100013.09
2022-08-22T14:12:12.162Z,100011.79
2022-08-22T14:14:46.009Z,100012.46
2022-08-22T14:17:20.899Z,100013.45
2022-08-22T14:19:59.307Z,100012.44
2022-08-22T14:22:31.877Z,100005.23
2022-08-22T14:25:07.896Z,100002.93
2022-08-22T14:27:39.525Z,100000.75
2022-08-22T14:30:15.186Z,99999.88
2022-08-22T14:32:48.042Z,99997.49
2022-08-22T14:35:34.991Z,99992.23
2022-08-22T14:38:27.444Z,99987.39
2022-08-22T14:41:03.585Z,99990.04
2022-08-22T14:43:51.681Z,99987.61
2022-08-22T14:46:28.951Z,99984.51
2022-08-22T14:49:28.859Z,99978.84
2022-08-22T14:52:02.296Z,99981.94
2022-08-22T14:54:31.539Z,99978.42
2022-08-22T14:57:01.915Z,99977.99
2022-08-22T14:59:45.580Z,99976.08
2022-08-22T15:02:23.157Z,99972.52
2022-08-22T15:04:54.610Z,99974.69
2022-08-22T15:07:24.922Z,99974.67
2022-08-22T15:09:57.691Z,99972.71
2022-08-22T15:12:28.569Z,99968.50
2022-08-22T15:14:59.572Z,99972.66
2022-08-22T15:17:37.689Z,99969.40
2022-08-22T15:20:27.747Z,99965.36
2022-08-22T15:23:00.280Z,99963.16
2022-08-22T15:25:33.312Z,99959.88
2022-08-22T15:28:05.717Z,99960.20
2022-08-22T15:30:39.049Z,99958.67
2022-08-22T15:33:21.163Z,99962.31
2022-08-22T15:35:52.716Z,99960.11
2022-08-22T15:38:30.943Z,99961.06
2022-08-22T15:41:25.110Z,99962.37
2022-08-22T15:44:06.890Z,99961.02
2022-08-22T15:46:40.329Z,99956.30
2022-08-22T15:49:12.293Z,99954.44
2022-08-22T15:51:46.051Z,99951.91
2022-08-22T15:54:25.204Z,99955.08
2022-08-22T15:57:15.337Z,99954.44
2022-08-22T15:59:54.730Z,99956.92
2022-08-22T16:02:34.952Z,99960.97
2022-08-22T16:05:22.865Z,99961.34
2022-08-22T16:08:02.015Z,99957.81
2022-08-22T16:10:34.877Z,99959.83
2022-08-22T16:13:13.323Z,99955.39
2022-08-22T16:15:59.787Z,99956.35
2022-08-22T16:19:03.906Z,99953.43
2022-08-22T16:22:09.051Z,99951.02
2022-08-22T16:25:00.658Z,99947.63
2022-08-22T16:27:29.339Z,99946.58
2022-08-22T16:30:29.567Z,99951.10
2022-08-22T16:32:57.665Z,99951.05
2022-08-22T16:36:01.441Z,99949.66
2022-08-22T16:38:40.352Z,99952.14
2022-08-22T16:41:34.464Z,99955.04
2022-08-22T16:44:20.274Z,99955.01
2022-08-22T16:46:51.314Z,99955.86
2022-08-22T16:49:29.384Z,99955.80
2022-08-22T16:52:33.630Z,99957.52
2022-08-22T16:55:05.341Z,99955.76
2022-08-22T16:57:54.416Z,99958.44
2022-08-22T17:00:37.781Z,99960.96
2022-08-22T17:03:15.532Z,99964.59
2022-08-22T17:05:54.829Z,99961.71
2022-08-22T17:08:44.796Z,99960.73
2022-08-22T17:11:25.126Z,99963.21
2022-08-22T17:14:08.653Z,99966.08
2022-08-22T17:16:59.817Z,99963.85
2022-08-22T17:19:42.011Z,99965.30
2022-08-22T17:22:21.286Z,99968.64
2022-08-22T17:25:12.682Z,99968.97
2022-08-22T17:27:43.390Z,99973.15
2022-08-22T17:30:13.941Z,99975.24
2022-08-22T17:33:00.219Z,99979.89
2022-08-22T17:35:44.847Z,99975.14
2022-08-22T17:38:24.815Z,99973.00
2022-08-22T17:41:01.682Z,99976.48
2022-08-22T17:43:49.566Z,99978.09
2022-08-22T17:46:31.965Z,99978.45
2022-08-22T17:49:16.649Z,99986.05
2022-08-22T17:51:51.885Z,99983.38
2022-08-22T17:54:29.543Z,99983.96
2022-08-22T17:57:05.773Z,99987.09
2022-08-22T17:59:44.215Z,99986.58
2022-08-22T18:02:22.273Z,99989.06
2022-08-22T18:05:02.765Z,99988.61
2022-08-22T18:07:49.218Z,99989.95
2022-08-22T18:10:37.637Z,99992.89
2022-08-22T18:13:11.075Z,99993.66
2022-08-22T18:15:47.339Z,99995.94
2022-08-22T18:18:30.099Z,99995.00
2022-08-22T18:21:02.778Z,99997.67
2022-08-22T18:23:40.403Z,99999.50
2022-08-22T18:26:20.846Z,99995.08
2022-08-22T18:28:59.047Z,100002.02
2022-08-22T18:31:39.879Z,100004.89
2022-08-22T18:34:29.212Z,100007.59
2022-08-22T18:37:03.443Z,100011.73
2022-08-22T18:39:42.627Z,100009.80
2022-08-22T18:42:23.549Z,100017.20
2022-08-22T18:44:51.380Z,100020.02
2022-08-22T18:47:24.330Z,100017.99
2022-08-22T18:49:54.471Z,100022.17
2022-08-22T18:52:34.632Z,100026.00
2022-08-22T18:55:27.765Z,100026.06
2022-08-22T18:58:19.302Z,100028.76
2022-08-22T19:01:04.172Z,100033.77
2022-08-22T19:03:52.600Z,100036.02
2022-08-22T19:06:37.102Z,100036.88
2022-08-22T19:09:37.328Z,100034.28
2022-08-22T19:12:18.295Z,100033.52
2022-08-22T19:15:10.710Z,100033.98
2022-08-22T19:18:07.061Z,100035.48
2022-08-22T19:20:55.738Z,100041.19
2022-08-22T19:23:49.541Z,100041.95
2022-08-22T19:26:36.050Z,100047.63
2022-08-22T19:29:26.358Z,100050.02
2022-08-22T19:31:55.651Z,100049.16
2022-08-22T19:34:41.013Z,100052.02
2022-08-22T19:37:32.340Z,100054.26
2022-08-22T19:40:05.280Z,100053.30
2022-08-22T19:42:39.492Z,100059.55
2022-08-22T19:45:20.155Z,100059.63
2022-08-22T19:47:57.898Z,100062.39
2022-08-22T19:50:31.992Z,100062.13
2022-08-22T19:53:20.654Z,100060.87
2022-08-22T19:56:01.994Z,100060.36
2022-08-22T19:58:49.764Z,100061.92
2022-08-22T20:01:50.296Z,100059.98
2022-08-22T20:04:37.483Z,100067.19
2022-08-22T20:07:15.373Z,100070.47
2022-08-22T20:09:57.026Z,100071.13
2022-08-22T20:12:36.651Z,100069.42
2022-08-22T20:15:16.301Z,100073.39
2022-08-22T20:18:11.616Z,100074.25
2022-08-22T20:20:38.421Z,100072.65
2022-08-22T20:23:14.719Z,100074.09
2022-08-22T20:25:47.890Z,100076.14
2022-08-22T20:28:30.888Z,100076.44
2022-08-22T20:31:02.134Z,100072.95
2022-08-22T20:33:31.652Z,100071.37
2022-08-22T20:36:02.893Z,100073.73
2022-08-22T20:38:35.266Z,100071.34
2022-08-22T20:41:11.242Z,100074.55
2022-08-22T20:43:45.369Z,100077.15
2022-08-22T20:46:29.245Z,100077.65
2022-08-22T20:48:57.235Z,100073.98
2022-08-22T20:51:27.403Z,100073.58
2022-08-22T20:53:57.892Z,100074.21
2022-08-22T20:56:38.081Z,100075.14
2022-08-22T20:59:29.105Z,100077.28
2022-08-22T21:02:04.234Z,100074.52
2022-08-22T21:04:42.821Z,100076.69
2022-08-22T21:07:10.807Z,100081.20
2022-08-22T21:09:57.215Z,100080.08
2022-08-22T21:12:25.675Z,100079.23
2022-08-22T21:14:53.503Z,100083.17
2022-08-22T21:17:25.314Z,100088.05
2022-08-22T21:19:54.325Z,100084.26
2022-08-22T21:22:32.092Z,100087.50
2022-08-22T21:25:00.783Z,100088.15
2022-08-22T21:27:31.868Z,100089.02
2022-08-22T21:30:02.375Z,100090.16
2022-08-22T21:32:34.286Z,100091.23
2022-08-22T21:35:04.105Z,100087.77
2022-08-22T21:37:39.457Z,100085.25
2022-08-22T21:40:14.879Z,100087.05
2022-08-22T21:42:45.670Z,100089.66
2022-08-22T21:45:27.198Z,100092.70
2022-08-22T21:47:56.174Z,100089.05
2022-08-22T21:50:33.930Z,100089.09
2022-08-22T21:53:06.206Z,100085.64
2022-08-22T21:55:42.194Z,100086.42
2022-08-22T21:58:36.890Z,100085.25
2022-08-22T22:01:29.844Z,100082.50
2022-08-22T22:03:58.692Z,100087.79
2022-08-22T22:06:27.070Z,100089.60
2022-08-22T22:08:55.180Z,100088.19
2022-08-22T22:11:22.904Z,100095.42
2022-08-22T22:13:50.708Z,100095.28
2022-08-22T22:16:22.507Z,100100.33
2022-08-22T22:18:50.286Z,100103.62
2022-08-22T22:21:18.221Z,100100.75
2022-08-22T22:23:46.307Z,100107.72
2022-08-22T22:26:14.536Z,100104.82
2022-08-22T22:28:46.628Z,100108.94
2022-08-22T22:31:15.714Z,100111.25
2022-08-22T22:33:44.155Z,100109.25
2022-08-22T22:36:15.570Z,100109.38
2022-08-22T22:38:44.076Z,100112.95
2022-08-22T22:41:13.055Z,100109.48
2022-08-22T22:43:40.798Z,100111.52
2022-08-22T22:46:09.015Z,100116.31
2022-08-22T22:48:36.952Z,100115.95
2022-08-22T22:51:08.498Z,100120.22
2022-08-22T22:53:40.144Z,100125.81
2022-08-22T22:56:11.841Z,100133.28
2022-08-22T22:58:40.307Z,100135.86
2022-08-22T23:01:09.234Z,100138.69
2022-08-22T23:03:37.460Z,100138.71
2022-08-22T23:06:09.323Z,100139.40
2022-08-22T23:08:37.021Z,100142.42
2022-08-22T23:11:10.418Z,100147.08
2022-08-22T23:13:39.666Z,100150.60
2022-08-22T23:16:13.453Z,100157.80
2022-08-22T23:18:42.335Z,100159.81
2022-08-22T23:21:13.253Z,100161.97
2022-08-22T23:23:41.658Z,100165.38
2022-08-22T23:26:10.226Z,100163.81
2022-08-22T23:28:38.056Z,100165.06
2022-08-22T23:31:15.864Z,100164.05
2022-08-22T23:33:44.922Z,100159.89
2022-08-22T23:36:18.353Z,100161.67
2022-08-22T23:38:47.008Z,100162.44
2022-08-22T23:41:17.205Z,100164.19
2022-08-22T23:43:47.196Z,100162.57
2022-08-22T23:46:16.239Z,100166.55
2022-08-22T23:48:44.150Z,100164.95
2022-08-22T23:51:13.537Z,100165.27
2022-08-22T23:53:43.106Z,100160.43
2022-08-22T23:56:19.300Z,100157.48
2022-08-22T23:58:49.118Z,100152.91
